Time;durP1;ratioP1;P1;durP2;ratioP2;P2;SDS_P1;SDS_P2;PMS_P1;PMS_P2;Temp;Humidity;BMP_temperature;BMP_pressure;BME280_temperature;BME280_humidity;BME280_pressure;Samples;Min_cycle;Max_cycle;Signal;HPM_P1;HPM_P2
2023/06/20 00:01:12;;;;;;;9.82;4.20;;;26.20;73.50;;;;;;5044098;28;20045;-54
2023/06/20 00:03:37;;;;;;;11.52;4.22;;;26.20;73.70;;;;;;5044125;28;20033;-54
2023/06/20 00:06:03;;;;;;;7.90;4.05;;;26.10;73.80;;;;;;5043784;28;20076;-54
2023/06/20 00:08:29;;;;;;;17.10;4.82;;;26.10;74.30;;;;;;5043944;28;20042;-54
2023/06/20 00:10:54;;;;;;;17.92;4.78;;;26.10;73.60;;;;;;5045288;28;20124;-54
2023/06/20 00:13:20;;;;;;;10.57;4.55;;;26.10;73.70;;;;;;5043833;28;20041;-54
2023/06/20 00:15:45;;;;;;;7.68;4.68;;;26.10;73.80;;;;;;5045333;28;20087;-54
2023/06/20 00:18:11;;;;;;;8.63;4.72;;;26.10;73.90;;;;;;5043869;28;20026;-54
2023/06/20 00:20:36;;;;;;;9.93;5.13;;;26.10;74.00;;;;;;5043832;28;20025;-54
2023/06/20 00:23:02;;;;;;;10.43;4.88;;;26.00;74.00;;;;;;5045200;28;20025;-54
2023/06/20 00:25:27;;;;;;;11.30;4.85;;;26.00;74.20;;;;;;5043623;28;20079;-54
2023/06/20 00:27:53;;;;;;;11.00;5.05;;;26.00;74.40;;;;;;5043677;28;20025;-54
2023/06/20 00:30:19;;;;;;;10.57;4.47;;;26.00;74.70;;;;;;5045085;28;20508;-54
2023/06/20 00:32:44;;;;;;;15.88;5.05;;;26.00;74.80;;;;;;5044921;28;20431;-54
2023/06/20 00:35:10;;;;;;;12.27;4.57;;;26.00;74.80;;;;;;5045010;28;20112;-54
2023/06/20 00:37:38;;;;;;;8.82;4.63;;;26.00;74.60;;;;;;5043211;28;20025;-54
2023/06/20 00:40:06;;;;;;;14.00;5.20;;;26.00;74.60;;;;;;5043518;28;20030;-54
2023/06/20 00:42:32;;;;;;;11.23;5.38;;;26.00;74.70;;;;;;5044942;28;20108;-54
2023/06/20 00:44:57;;;;;;;7.55;4.50;;;25.90;74.70;;;;;;5043391;28;20041;-54
2023/06/20 00:47:23;;;;;;;7.47;4.70;;;25.90;74.80;;;;;;5044805;28;20466;-54
2023/06/20 00:49:49;;;;;;;8.75;5.18;;;25.90;74.80;;;;;;5026826;28;20033;-54
2023/06/20 00:52:17;;;;;;;9.85;5.45;;;25.90;75.10;;;;;;5043073;28;20038;-54
2023/06/20 00:54:44;;;;;;;10.05;5.78;;;25.80;75.00;;;;;;5043257;28;20052;-54
2023/06/20 00:57:13;;;;;;;7.40;5.13;;;25.80;75.00;;;;;;5044543;28;20406;-54
2023/06/20 00:59:42;;;;;;;9.25;6.40;;;25.80;75.10;;;;;;5043321;28;20045;-54
2023/06/20 01:02:07;;;;;;;12.45;5.90;;;25.80;75.90;;;;;;5044699;28;20033;-54
2023/06/20 01:04:33;;;;;;;14.23;6.93;;;25.80;75.40;;;;;;5044451;28;20036;-54
2023/06/20 01:07:02;;;;;;;10.32;6.60;;;25.80;75.70;;;;;;5044499;28;20029;-54
2023/06/20 01:09:44;;;;;;;14.95;7.72;;;25.80;75.80;;;;;;5043125;28;20033;-54
2023/06/20 01:12:29;;;;;;;12.45;7.30;;;25.80;76.00;;;;;;5044456;28;20040;-54
2023/06/20 01:15:06;;;;;;;11.98;8.10;;;25.70;76.10;;;;;;5042991;28;20032;-54
2023/06/20 01:17:53;;;;;;;19.10;7.85;;;25.70;76.10;;;;;;5043179;28;20044;-55
2023/06/20 01:20:24;;;;;;;18.58;8.32;;;25.70;76.40;;;;;;5044487;28;20026;-54
2023/06/20 01:23:24;;;;;;;18.67;9.07;;;25.60;76.50;;;;;;5026516;28;20056;-54
2023/06/20 01:26:17;;;;;;;15.57;8.45;;;25.70;76.80;;;;;;5042424;28;20049;-55
2023/06/20 01:28:50;;;;;;;25.17;9.15;;;25.70;76.70;;;;;;5044396;28;20063;-54
2023/06/20 01:31:18;;;;;;;17.52;8.75;;;25.60;76.80;;;;;;5044415;28;20034;-55
2023/06/20 01:33:56;;;;;;;18.67;9.20;;;25.60;76.90;;;;;;5042950;28;20025;-55
2023/06/20 01:36:21;;;;;;;21.35;9.27;;;25.60;77.20;;;;;;5043031;28;20029;-55
2023/06/20 01:38:50;;;;;;;19.23;9.20;;;25.60;77.20;;;;;;5042898;28;20026;-54
2023/06/20 01:41:19;;;;;;;20.83;8.70;;;25.60;77.50;;;;;;5042899;28;20037;-55
2023/06/20 01:43:44;;;;;;;20.65;8.98;;;25.50;77.60;;;;;;5042844;28;20036;-55
2023/06/20 01:46:10;;;;;;;24.77;9.20;;;25.60;77.80;;;;;;5042802;28;20089;-54
2023/06/20 01:48:36;;;;;;;17.80;9.15;;;25.50;77.80;;;;;;5042843;28;20037;-55
2023/06/20 01:51:01;;;;;;;18.23;8.77;;;25.50;78.00;;;;;;5046103;28;20036;-54
2023/06/20 01:53:27;;;;;;;17.80;8.65;;;25.50;77.90;;;;;;5047716;28;20083;-54
2023/06/20 01:55:52;;;;;;;18.98;9.60;;;25.50;78.10;;;;;;5029948;28;20029;-55
2023/06/20 01:58:18;;;;;;;22.45;10.18;;;25.50;78.40;;;;;;5046642;28;20398;-54
2023/06/20 02:00:43;;;;;;;23.20;10.68;;;25.50;78.60;;;;;;5046565;28;20440;-54
2023/06/20 02:03:09;;;;;;;18.30;9.25;;;25.40;78.40;;;;;;5046490;28;20032;-54
2023/06/20 02:05:34;;;;;;;19.25;11.25;;;25.40;78.40;;;;;;5046357;28;20411;-54
2023/06/20 02:08:00;;;;;;;20.05;13.15;;;25.40;78.70;;;;;;5046152;28;20026;-54
2023/06/20 02:10:26;;;;;;;24.45;12.38;;;25.40;78.70;;;;;;5046302;28;20455;-54
2023/06/20 02:12:53;;;;;;;22.10;11.45;;;25.40;78.80;;;;;;5046130;28;20034;-54
2023/06/20 02:15:19;;;;;;;20.15;10.95;;;25.40;78.90;;;;;;5046049;28;20041;-54
2023/06/20 02:17:45;;;;;;;17.52;10.35;;;25.30;78.80;;;;;;5046231;28;20040;-54
2023/06/20 02:20:11;;;;;;;17.15;9.90;;;25.30;79.00;;;;;;5046220;28;20021;-54
2023/06/20 02:22:37;;;;;;;13.38;9.70;;;25.30;79.10;;;;;;5046036;28;20022;-54
2023/06/20 02:25:06;;;;;;;16.13;9.98;;;25.30;79.20;;;;;;5046023;28;20036;-54
2023/06/20 02:27:32;;;;;;;18.50;9.75;;;25.30;79.50;;;;;;5046062;28;20029;-54
2023/06/20 02:29:57;;;;;;;19.08;9.73;;;25.30;79.50;;;;;;5045829;28;20040;-54
2023/06/20 02:32:23;;;;;;;18.08;10.25;;;25.30;79.60;;;;;;5045807;28;20062;-54
2023/06/20 02:34:48;;;;;;;13.90;10.10;;;25.20;79.70;;;;;;5045836;28;20029;-55
2023/06/20 02:37:15;;;;;;;20.27;10.10;;;25.20;79.90;;;;;;5047245;28;20025;-54
2023/06/20 02:39:40;;;;;;;16.55;9.40;;;25.20;80.00;;;;;;5045814;28;20060;-54
2023/06/20 02:42:06;;;;;;;19.05;10.43;;;25.20;80.10;;;;;;5045636;28;20025;-54
2023/06/20 02:44:31;;;;;;;15.00;9.32;;;25.10;80.20;;;;;;5047076;28;20026;-54
2023/06/20 02:47:33;;;;;;;15.48;9.20;;;25.10;80.30;;;;;;5045695;28;20581;-54
2023/06/20 02:50:15;;;;;;;16.95;9.48;;;25.10;80.40;;;;;;5046632;28;20037;-54
2023/06/20 02:53:00;;;;;;;13.50;9.45;;;25.10;80.60;;;;;;5045476;28;20132;-54
2023/06/20 02:55:35;;;;;;;16.48;8.85;;;25.10;80.70;;;;;;5045575;28;20039;-54
2023/06/20 02:58:01;;;;;;;16.05;9.23;;;25.00;80.60;;;;;;5045436;28;20060;-54
2023/06/20 03:00:26;;;;;;;12.80;8.23;;;25.00;80.80;;;;;;5045296;28;20052;-54
2023/06/20 03:02:57;;;;;;;12.43;8.15;;;25.00;80.90;;;;;;5028737;28;20029;-54
2023/06/20 03:05:23;;;;;;;16.05;8.50;;;25.00;81.00;;;;;;5046627;28;20038;-54
2023/06/20 03:07:48;;;;;;;12.60;8.30;;;25.00;81.10;;;;;;5045107;28;20049;-54
2023/06/20 03:10:14;;;;;;;13.50;8.18;;;24.90;81.00;;;;;;5045253;28;20033;-54
2023/06/20 03:12:39;;;;;;;19.63;8.52;;;24.90;81.00;;;;;;5045154;28;20080;-55
2023/06/20 03:15:05;;;;;;;18.48;8.05;;;24.90;81.10;;;;;;5044904;28;20033;-55
2023/06/20 03:17:35;;;;;;;16.58;8.88;;;24.90;81.10;;;;;;5046281;28;20109;-54
2023/06/20 03:20:03;;;;;;;23.00;8.82;;;24.90;81.20;;;;;;5044776;28;20037;-55
2023/06/20 03:22:30;;;;;;;16.85;7.72;;;24.90;81.30;;;;;;5046249;28;20033;-54
2023/06/20 03:24:55;;;;;;;22.75;7.15;;;24.90;81.40;;;;;;5046208;28;20056;-54
2023/06/20 03:27:21;;;;;;;17.00;7.38;;;24.90;81.50;;;;;;5044859;28;20026;-54
2023/06/20 03:29:46;;;;;;;17.75;8.00;;;24.90;81.50;;;;;;5044572;28;20128;-55
2023/06/20 03:32:12;;;;;;;13.75;7.78;;;24.80;81.40;;;;;;5045933;28;20029;-55
2023/06/20 03:34:38;;;;;;;15.57;7.43;;;24.80;81.50;;;;;;5045842;28;20040;-54
2023/06/20 03:37:03;;;;;;;16.73;7.25;;;24.80;81.50;;;;;;5044904;28;20029;-55
2023/06/20 03:39:29;;;;;;;19.75;7.43;;;24.80;81.60;;;;;;5044617;28;20040;-55
2023/06/20 03:41:54;;;;;;;23.33;7.47;;;24.80;81.80;;;;;;5045949;28;20037;-54
2023/06/20 03:44:20;;;;;;;14.80;6.70;;;24.80;81.60;;;;;;5044408;28;20029;-55
2023/06/20 03:46:46;;;;;;;15.13;7.32;;;24.80;81.60;;;;;;5027851;28;20037;-55
2023/06/20 03:49:11;;;;;;;15.02;6.95;;;24.80;81.60;;;;;;5045660;28;20075;-55
2023/06/20 03:51:38;;;;;;;14.05;6.63;;;24.80;81.70;;;;;;5045507;28;20034;-55
2023/06/20 03:54:03;;;;;;;14.35;6.63;;;24.80;81.70;;;;;;5045533;28;20089;-55
2023/06/20 03:56:29;;;;;;;13.55;6.60;;;24.80;81.60;;;;;;5044422;28;20029;-54
2023/06/20 03:58:55;;;;;;;13.65;6.90;;;24.80;81.60;;;;;;5044201;28;20099;-55
2023/06/20 04:01:24;;;;;;;37.97;10.25;;;24.80;81.50;;;;;;5060727;28;20351;-55
2023/06/20 04:03:50;;;;;;;34.83;10.15;;;24.70;81.60;;;;;;5045413;28;20029;-55
2023/06/20 04:06:15;;;;;;;37.25;9.80;;;24.70;81.70;;;;;;5045690;28;20036;-55
2023/06/20 04:08:42;;;;;;;30.38;9.65;;;24.70;81.50;;;;;;5044071;28;20455;-55
2023/06/20 04:11:07;;;;;;;61.35;12.32;;;24.70;81.60;;;;;;5043697;28;20041;-55
2023/06/20 04:13:33;;;;;;;36.63;9.85;;;24.70;81.50;;;;;;5043367;28;20124;-55
2023/06/20 04:15:59;;;;;;;35.08;8.70;;;24.70;81.70;;;;;;5045487;28;20030;-54
2023/06/20 04:18:24;;;;;;;36.65;8.98;;;24.70;81.60;;;;;;5043798;28;20064;-54
2023/06/20 04:20:50;;;;;;;35.00;9.32;;;24.70;81.70;;;;;;5045059;28;20060;-55
2023/06/20 04:23:15;;;;;;;28.67;9.05;;;24.70;81.80;;;;;;5044213;28;20685;-55
2023/06/20 04:25:41;;;;;;;43.90;9.98;;;24.70;81.80;;;;;;5045670;28;20089;-53
2023/06/20 04:28:06;;;;;;;35.40;9.38;;;24.70;82.20;;;;;;5045287;28;20362;-55
2023/06/20 04:30:32;;;;;;;31.58;8.38;;;24.70;82.30;;;;;;5043795;28;20385;-55
2023/06/20 04:32:57;;;;;;;32.83;9.25;;;24.60;82.40;;;;;;5043660;28;20093;-55
2023/06/20 04:35:23;;;;;;;35.47;8.88;;;24.60;82.20;;;;;;5045157;28;20123;-55
2023/06/20 04:37:51;;;;;;;33.20;9.15;;;24.60;82.40;;;;;;5044803;28;20097;-55
2023/06/20 04:40:19;;;;;;;24.42;8.45;;;24.60;82.40;;;;;;5043455;28;20036;-55
2023/06/20 04:42:47;;;;;;;25.52;8.73;;;24.60;82.30;;;;;;5043388;28;20044;-55
2023/06/20 04:45:13;;;;;;;29.50;8.60;;;24.60;82.40;;;;;;5043564;28;20036;-55
2023/06/20 04:47:41;;;;;;;35.85;8.32;;;24.60;82.60;;;;;;5043412;28;20394;-55
2023/06/20 04:50:09;;;;;;;25.73;7.63;;;24.60;82.40;;;;;;5044767;28;20075;-54
2023/06/20 04:52:34;;;;;;;29.77;8.68;;;24.60;82.70;;;;;;5043166;28;20029;-55
2023/06/20 04:55:03;;;;;;;37.55;9.00;;;24.70;83.00;;;;;;5044622;28;20037;-55
2023/06/20 04:57:29;;;;;;;37.63;8.52;;;24.70;83.10;;;;;;5045010;28;20037;-55
2023/06/20 04:59:55;;;;;;;33.25;7.78;;;24.60;83.30;;;;;;5043434;28;20108;-55
2023/06/20 05:02:20;;;;;;;30.70;8.40;;;24.60;83.10;;;;;;5045701;28;20079;-54
2023/06/20 05:04:46;;;;;;;27.38;8.05;;;24.70;83.10;;;;;;5045294;28;20033;-55
2023/06/20 05:07:12;;;;;;;21.17;7.55;;;24.60;83.00;;;;;;5044581;28;20029;-55
2023/06/20 05:09:37;;;;;;;29.83;8.77;;;24.60;82.70;;;;;;5043150;28;20029;-55
2023/06/20 05:12:03;;;;;;;26.75;8.35;;;24.70;82.90;;;;;;5044533;28;20434;-55
2023/06/20 05:14:28;;;;;;;30.10;7.95;;;24.70;82.80;;;;;;5044334;28;20033;-55
2023/06/20 05:16:54;;;;;;;23.80;8.23;;;24.70;82.70;;;;;;5043077;28;20084;-54
2023/06/20 05:19:19;;;;;;;30.25;7.75;;;24.70;82.50;;;;;;5043031;28;20032;-55
2023/06/20 05:21:45;;;;;;;21.95;8.10;;;24.70;82.20;;;;;;5044506;28;20056;-55
2023/06/20 05:24:10;;;;;;;26.05;8.20;;;24.70;82.20;;;;;;5043490;28;20116;-55
2023/06/20 05:26:36;;;;;;;24.27;7.88;;;24.70;81.80;;;;;;5047127;28;20052;-55
2023/06/20 05:29:03;;;;;;;25.00;7.60;;;24.70;81.70;;;;;;5030394;28;20021;-55
2023/06/20 05:31:29;;;;;;;20.38;7.05;;;24.70;81.70;;;;;;5046956;28;20021;-55
2023/06/20 05:33:54;;;;;;;18.00;7.15;;;24.70;81.70;;;;;;5046822;28;20053;-55
2023/06/20 05:36:20;;;;;;;19.77;6.97;;;24.70;81.60;;;;;;5046776;28;20104;-55
2023/06/20 05:38:48;;;;;;;20.73;7.50;;;24.70;81.60;;;;;;5046794;28;20092;-55
2023/06/20 05:41:15;;;;;;;19.48;7.18;;;24.70;81.50;;;;;;5048309;28;20037;-55
2023/06/20 05:43:40;;;;;;;21.63;7.15;;;24.70;81.60;;;;;;5046855;28;20033;-55
2023/06/20 05:46:06;;;;;;;23.10;7.53;;;24.70;81.70;;;;;;5046753;28;20033;-55
2023/06/20 05:48:32;;;;;;;18.95;7.20;;;24.70;81.30;;;;;;5046608;28;20370;-55
2023/06/20 05:51:00;;;;;;;26.13;7.50;;;24.70;81.30;;;;;;5048085;28;20030;-55
2023/06/20 05:53:28;;;;;;;17.20;6.88;;;24.70;81.30;;;;;;5046547;28;20458;-55
2023/06/20 05:55:54;;;;;;;11.82;5.95;;;24.70;81.50;;;;;;5046568;28;20080;-55
2023/06/20 05:58:19;;;;;;;16.30;6.90;;;24.80;81.80;;;;;;5046509;28;20036;-55
2023/06/20 06:00:45;;;;;;;20.08;7.00;;;24.70;81.80;;;;;;5046348;28;20029;-55
2023/06/20 06:03:12;;;;;;;23.08;6.63;;;24.80;82.10;;;;;;5046086;28;20052;-55
2023/06/20 06:05:39;;;;;;;20.52;6.57;;;24.80;82.30;;;;;;5047813;28;20021;-55
2023/06/20 06:08:05;;;;;;;19.73;5.93;;;24.80;82.40;;;;;;5046271;28;20120;-55
2023/06/20 06:10:31;;;;;;;14.57;6.13;;;24.80;82.40;;;;;;5046157;28;20022;-55
2023/06/20 06:12:57;;;;;;;15.23;6.13;;;24.80;82.60;;;;;;5046119;28;20044;-55
2023/06/20 06:15:22;;;;;;;17.52;6.00;;;24.90;83.00;;;;;;5046237;28;20026;-55
2023/06/20 06:17:48;;;;;;;13.70;6.10;;;24.80;82.40;;;;;;5046523;28;20022;-55
2023/06/20 06:20:17;;;;;;;11.73;5.75;;;24.80;82.50;;;;;;5046569;28;20103;-55
2023/06/20 06:22:43;;;;;;;15.43;5.68;;;24.80;82.80;;;;;;5047114;28;20033;-55
2023/06/20 06:25:08;;;;;;;11.85;5.95;;;24.80;83.00;;;;;;5045411;28;20030;-55
2023/06/20 06:27:34;;;;;;;15.15;5.63;;;24.80;83.10;;;;;;5045543;28;20072;-55
2023/06/20 06:30:00;;;;;;;17.60;5.95;;;24.80;83.10;;;;;;5029313;28;20095;-55
2023/06/20 06:32:27;;;;;;;13.93;5.85;;;24.80;83.10;;;;;;5045293;28;20076;-55
2023/06/20 06:34:53;;;;;;;11.52;5.07;;;24.90;83.20;;;;;;5044130;28;20022;-55
2023/06/20 06:37:19;;;;;;;12.00;5.78;;;24.80;83.10;;;;;;5028718;28;20034;-54
2023/06/20 06:39:45;;;;;;;16.02;5.53;;;24.90;83.20;;;;;;5063447;28;20116;-55
2023/06/20 06:42:10;;;;;;;16.60;6.18;;;24.90;83.40;;;;;;5063368;28;20088;-55
2023/06/20 06:44:36;;;;;;;19.45;6.05;;;24.90;83.40;;;;;;5063157;28;20091;-54
2023/06/20 06:47:02;;;;;;;27.23;6.68;;;24.90;83.60;;;;;;5044161;28;20446;-55
2023/06/20 06:49:27;;;;;;;25.65;6.38;;;24.90;83.60;;;;;;5046740;28;20025;-55
2023/06/20 06:51:53;;;;;;;21.17;6.35;;;24.90;83.40;;;;;;5065704;28;20025;-54
2023/06/20 06:54:19;;;;;;;15.18;6.15;;;24.90;83.50;;;;;;5029080;28;20106;-54
2023/06/20 06:56:45;;;;;;;19.67;5.75;;;24.90;83.40;;;;;;5045316;28;20089;-55
2023/06/20 06:59:11;;;;;;;14.23;6.00;;;24.90;83.50;;;;;;5058436;28;20033;-55
2023/06/20 07:01:36;;;;;;;12.98;5.50;;;24.90;83.50;;;;;;5049912;28;20033;-55
2023/06/20 07:04:02;;;;;;;15.05;5.60;;;24.90;83.70;;;;;;5065306;28;20398;-55
2023/06/20 07:06:29;;;;;;;52.55;8.20;;;24.90;83.70;;;;;;5058645;28;20057;-55
2023/06/20 07:08:55;;;;;;;30.75;7.75;;;25.00;84.80;;;;;;5046575;28;20025;-55
2023/06/20 07:11:22;;;;;;;44.58;8.07;;;25.00;85.50;;;;;;5046314;28;20162;-55
2023/06/20 07:13:47;;;;;;;30.85;7.30;;;25.00;84.60;;;;;;5046317;28;20033;-55
2023/06/20 07:16:13;;;;;;;30.98;7.68;;;25.00;84.50;;;;;;5052702;28;20021;-55
2023/06/20 07:18:38;;;;;;;54.53;10.02;;;25.00;83.90;;;;;;5046230;28;20027;-55
2023/06/20 07:21:04;;;;;;;73.10;10.60;;;25.00;83.80;;;;;;5045265;28;20048;-55
2023/06/20 07:23:30;;;;;;;70.72;11.55;;;25.00;87.70;;;;;;5028813;28;20085;-55
2023/06/20 07:25:55;;;;;;;54.05;9.52;;;25.10;87.40;;;;;;5061529;28;20029;-54
2023/06/20 07:28:21;;;;;;;41.20;8.45;;;25.00;86.90;;;;;;5050152;28;20464;-55
2023/06/20 07:30:46;;;;;;;31.10;8.18;;;25.00;86.80;;;;;;5044743;28;20096;-55
2023/06/20 07:33:12;;;;;;;33.58;8.70;;;24.90;86.80;;;;;;5048208;28;20071;-55
2023/06/20 07:35:37;;;;;;;45.65;9.15;;;24.90;87.40;;;;;;5064427;28;20326;-55
2023/06/20 07:38:03;;;;;;;41.05;7.90;;;24.90;87.80;;;;;;5053571;28;20030;-54
2023/06/20 07:40:28;;;;;;;49.30;8.15;;;24.90;87.60;;;;;;5042103;28;20056;-55
2023/06/20 07:42:54;;;;;;;43.13;9.05;;;24.90;87.70;;;;;;5065560;28;20033;-55
2023/06/20 07:45:20;;;;;;;161.73;20.65;;;24.90;87.70;;;;;;5065674;28;20438;-55
2023/06/20 07:47:45;;;;;;;44.90;11.27;;;24.80;87.60;;;;;;5059727;28;20109;-54
2023/06/20 07:50:11;;;;;;;72.53;11.50;;;24.80;87.80;;;;;;5045891;28;20084;-55
2023/06/20 07:52:36;;;;;;;76.25;11.40;;;24.90;87.40;;;;;;5044076;28;20096;-55
2023/06/20 07:55:04;;;;;;;32.40;7.82;;;24.90;87.00;;;;;;5042221;28;20477;-55
2023/06/20 07:57:29;;;;;;;47.38;8.90;;;24.90;87.60;;;;;;5044270;28;20056;-55
2023/06/20 07:59:55;;;;;;;34.72;7.78;;;24.90;87.50;;;;;;5041051;28;20018;-54
2023/06/20 08:02:21;;;;;;;37.28;8.27;;;24.90;87.30;;;;;;5033694;28;20033;-54
2023/06/20 08:04:47;;;;;;;38.35;7.75;;;24.90;87.60;;;;;;5047656;28;20052;-54
2023/06/20 08:07:13;;;;;;;40.03;7.90;;;24.90;87.50;;;;;;5063837;28;20036;-54
2023/06/20 08:09:38;;;;;;;27.63;7.88;;;24.90;87.60;;;;;;5063565;28;20055;-55
2023/06/20 08:12:04;;;;;;;30.05;7.22;;;24.90;87.30;;;;;;5056709;28;20055;-55
2023/06/20 08:14:30;;;;;;;24.65;6.82;;;24.90;87.40;;;;;;5043348;28;20497;-54
2023/06/20 08:16:55;;;;;;;13.30;5.78;;;24.90;87.20;;;;;;5045102;28;20033;-55
2023/06/20 08:19:21;;;;;;;11.77;5.57;;;25.00;87.30;;;;;;5046994;28;20017;-55
2023/06/20 08:21:46;;;;;;;23.63;6.95;;;24.90;87.30;;;;;;5045479;28;20428;-55
2023/06/20 08:24:12;;;;;;;13.88;5.90;;;24.90;87.30;;;;;;5024267;28;20026;-55
2023/06/20 08:26:37;;;;;;;20.50;6.55;;;25.00;87.30;;;;;;5041556;28;20038;-55
2023/06/20 08:29:03;;;;;;;29.25;7.38;;;25.00;87.30;;;;;;5032892;28;20029;-55
2023/06/20 08:31:37;;;;;;;24.65;6.80;;;25.00;88.30;;;;;;5053924;28;20061;-55
2023/06/20 08:34:04;;;;;;;13.45;5.50;;;25.10;88.20;;;;;;5043261;28;20097;-55
2023/06/20 08:36:30;;;;;;;23.45;7.13;;;25.10;87.30;;;;;;5039134;28;20017;-55
2023/06/20 08:38:55;;;;;;;23.70;6.38;;;25.10;87.00;;;;;;5031776;28;20043;-55
2023/06/20 08:41:24;;;;;;;30.83;7.57;;;25.10;86.70;;;;;;5025213;28;20037;-54
2023/06/20 08:43:50;;;;;;;22.05;6.30;;;25.10;87.00;;;;;;5024739;28;20567;-54
2023/06/20 08:46:15;;;;;;;20.95;5.88;;;25.10;86.50;;;;;;5034429;28;20118;-55
2023/06/20 08:48:41;;;;;;;19.60;5.68;;;25.10;87.00;;;;;;5035142;28;20375;-55
2023/06/20 08:51:07;;;;;;;17.52;5.90;;;25.10;86.60;;;;;;5030220;28;20085;-54
2023/06/20 08:53:33;;;;;;;25.70;5.80;;;25.20;86.70;;;;;;5031203;28;20031;-55
2023/06/20 08:55:59;;;;;;;21.55;6.72;;;25.20;86.20;;;;;;5024414;28;20017;-55
2023/06/20 08:58:24;;;;;;;21.05;6.32;;;25.20;86.20;;;;;;5042707;28;20030;-55
2023/06/20 09:00:50;;;;;;;28.80;5.85;;;25.20;86.20;;;;;;5038397;28;20029;-55
2023/06/20 09:03:15;;;;;;;24.02;5.28;;;25.30;86.00;;;;;;5032143;28;20037;-55
2023/06/20 09:05:42;;;;;;;22.52;6.25;;;25.30;85.60;;;;;;5032541;28;20052;-55
2023/06/20 09:08:10;;;;;;;27.02;5.72;;;25.30;85.50;;;;;;5040326;28;20037;-55
2023/06/20 09:10:36;;;;;;;28.88;6.20;;;25.30;85.00;;;;;;5046663;28;20029;-54
2023/06/20 09:13:02;;;;;;;25.05;6.32;;;25.40;85.50;;;;;;5030802;28;20032;-55
2023/06/20 09:15:27;;;;;;;26.42;6.88;;;25.40;85.50;;;;;;5042532;28;20088;-54
2023/06/20 09:17:54;;;;;;;22.20;5.78;;;25.40;85.50;;;;;;5038713;28;20032;-55
2023/06/20 09:20:20;;;;;;;26.75;6.18;;;25.40;85.50;;;;;;5051329;28;20025;-55
2023/06/20 09:22:46;;;;;;;17.10;5.57;;;25.50;85.50;;;;;;5042267;28;20056;-54
2023/06/20 09:25:12;;;;;;;21.90;6.28;;;25.50;85.60;;;;;;5037740;28;20018;-55
2023/06/20 09:27:39;;;;;;;22.27;6.40;;;25.50;85.60;;;;;;5043323;28;20037;-55
2023/06/20 09:30:05;;;;;;;29.75;6.63;;;25.50;85.40;;;;;;5032037;28;20132;-54
2023/06/20 09:32:40;;;;;;;18.70;6.45;;;25.60;85.40;;;;;;5025945;28;20039;-55
2023/06/20 09:35:07;;;;;;;24.73;5.72;;;25.60;85.10;;;;;;5029574;28;20045;-55
2023/06/20 09:37:43;;;;;;;30.60;6.32;;;25.60;84.70;;;;;;5028403;28;20104;-54
2023/06/20 09:40:10;;;;;;;30.30;6.70;;;25.60;84.60;;;;;;5036443;28;20029;-55
2023/06/20 09:42:36;;;;;;;17.90;5.65;;;25.70;84.60;;;;;;5037536;28;20029;-55
2023/06/20 09:45:02;;;;;;;120.85;15.88;;;25.70;84.40;;;;;;5025476;28;20079;-54
2023/06/20 09:47:28;;;;;;;476.75;63.97;;;25.70;84.30;;;;;;5029727;28;20104;-55
2023/06/20 09:49:57;;;;;;;392.13;51.78;;;25.70;84.10;;;;;;5053513;28;20017;-54
2023/06/20 09:52:22;;;;;;;240.32;35.88;;;25.80;84.00;;;;;;5039078;28;20068;-54
2023/06/20 09:55:01;;;;;;;80.13;16.30;;;25.80;84.00;;;;;;5037648;28;20067;-55
2023/06/20 09:57:56;;;;;;;115.25;16.42;;;25.80;84.70;;;;;;5009599;28;20065;-55
2023/06/20 10:00:23;;;;;;;97.60;14.50;;;25.80;85.00;;;;;;5025881;28;20105;-54
2023/06/20 10:02:49;;;;;;;83.78;13.43;;;25.90;85.00;;;;;;5029786;28;20087;-54
2023/06/20 10:05:16;;;;;;;81.25;12.73;;;26.00;85.30;;;;;;5029040;28;20500;-54
2023/06/20 10:07:42;;;;;;;86.45;13.32;;;26.00;85.50;;;;;;5030553;28;20034;-54
2023/06/20 10:10:11;;;;;;;54.28;10.43;;;26.00;85.50;;;;;;5046532;28;20063;-54
2023/06/20 10:12:38;;;;;;;56.35;10.48;;;26.10;85.70;;;;;;5023054;28;20393;-54
2023/06/20 10:15:03;;;;;;;73.20;12.57;;;26.10;85.70;;;;;;5033245;28;20091;-54
2023/06/20 10:17:31;;;;;;;84.13;11.75;;;26.20;85.80;;;;;;5027296;28;20025;-54
2023/06/20 10:19:56;;;;;;;67.13;11.82;;;26.20;86.10;;;;;;5040118;28;20085;-54
2023/06/20 10:22:58;;;;;;;112.22;16.15;;;26.20;86.10;;;;;;5025338;28;20034;-54
2023/06/20 10:25:25;;;;;;;92.88;16.38;;;26.30;86.20;;;;;;5025082;28;20030;-54
2023/06/20 10:28:20;;;;;;;129.32;17.60;;;26.30;86.10;;;;;;5009532;28;20057;-55
2023/06/20 10:30:46;;;;;;;83.40;14.02;;;26.40;86.00;;;;;;5027456;28;20049;-54
2023/06/20 10:33:12;;;;;;;85.05;13.45;;;26.50;85.60;;;;;;5028014;28;20030;-54
2023/06/20 10:35:55;;;;;;;72.05;11.48;;;26.50;85.20;;;;;;5026005;28;20129;-53
2023/06/20 10:38:21;;;;;;;52.58;10.82;;;26.60;84.50;;;;;;5025861;28;20112;-54
2023/06/20 10:40:46;;;;;;;49.35;10.50;;;26.70;84.10;;;;;;5024668;28;20034;-54
2023/06/20 10:43:16;;;;;;;73.45;12.13;;;26.70;83.50;;;;;;5025688;28;20073;-54
2023/06/20 10:45:53;;;;;;;97.93;13.60;;;26.80;83.30;;;;;;5025065;28;20067;-54
2023/06/20 10:48:19;;;;;;;109.88;13.90;;;26.90;83.20;;;;;;5024139;28;20061;-54
2023/06/20 10:50:45;;;;;;;77.20;13.32;;;26.90;83.00;;;;;;5026310;28;20033;-54
2023/06/20 10:53:10;;;;;;;98.20;14.52;;;27.00;83.00;;;;;;5023933;28;20105;-54
2023/06/20 10:55:37;;;;;;;90.78;14.35;;;27.00;82.80;;;;;;5025285;28;20029;-54
2023/06/20 10:58:03;;;;;;;105.97;15.10;;;27.00;82.70;;;;;;5042630;28;20045;-54
2023/06/20 11:00:28;;;;;;;63.80;11.85;;;27.10;82.70;;;;;;5044519;28;20029;-54
2023/06/20 11:02:55;;;;;;;54.47;10.48;;;27.10;83.10;;;;;;5045981;28;20108;-54
2023/06/20 11:05:38;;;;;;;85.40;11.85;;;27.10;83.00;;;;;;5044200;28;20045;-54
2023/06/20 11:08:10;;;;;;;70.75;11.27;;;27.20;82.80;;;;;;5028719;28;20052;-55
2023/06/20 11:10:36;;;;;;;63.83;11.57;;;27.30;82.60;;;;;;5046481;28;20052;-54
2023/06/20 11:13:03;;;;;;;54.75;9.68;;;27.30;83.20;;;;;;5046270;28;20549;-54
2023/06/20 11:15:30;;;;;;;46.92;9.30;;;27.40;82.30;;;;;;5028058;28;20038;-54
2023/06/20 11:17:57;;;;;;;43.90;9.20;;;27.40;81.90;;;;;;5044835;28;20025;-54
2023/06/20 11:20:24;;;;;;;51.38;9.70;;;27.50;81.70;;;;;;5028121;28;20033;-54
2023/06/20 11:22:51;;;;;;;45.75;9.20;;;27.50;81.30;;;;;;5042685;28;20025;-54
2023/06/20 11:25:24;;;;;;;66.72;10.98;;;27.60;81.20;;;;;;5044134;28;20339;-54
2023/06/20 11:27:50;;;;;;;55.72;10.38;;;27.70;81.20;;;;;;5044350;28;20048;-54
2023/06/20 11:30:15;;;;;;;49.30;8.73;;;27.70;81.10;;;;;;5044147;28;20033;-54
2023/06/20 11:32:54;;;;;;;44.15;9.48;;;27.80;81.20;;;;;;5039328;28;20411;-54
2023/06/20 11:35:20;;;;;;;59.15;8.82;;;27.80;80.90;;;;;;5039269;28;20404;-54
2023/06/20 11:37:46;;;;;;;37.22;8.00;;;27.90;80.50;;;;;;5045789;28;20025;-54
2023/06/20 11:40:12;;;;;;;63.97;8.88;;;28.00;80.20;;;;;;5033709;28;20060;-54
2023/06/20 11:42:38;;;;;;;52.42;8.57;;;28.10;79.50;;;;;;5041192;28;20041;-54
2023/06/20 11:45:10;;;;;;;45.15;8.63;;;28.20;78.60;;;;;;5036606;28;20026;-54
2023/06/20 11:47:35;;;;;;;35.70;7.88;;;28.30;78.50;;;;;;5044296;28;20115;-54
2023/06/20 11:50:01;;;;;;;22.30;6.03;;;28.30;78.10;;;;;;5036765;28;20033;-54
2023/06/20 11:52:32;;;;;;;34.15;7.03;;;28.40;77.50;;;;;;5065198;28;20063;-54
2023/06/20 11:54:59;;;;;;;27.98;5.70;;;28.40;76.60;;;;;;5054117;28;20048;-53
2023/06/20 11:57:28;;;;;;;35.85;8.13;;;28.50;76.00;;;;;;5043186;28;20092;-54
2023/06/20 12:00:07;;;;;;;39.67;7.38;;;28.50;76.00;;;;;;5043962;28;20038;-54
2023/06/20 12:02:36;;;;;;;39.70;6.60;;;28.60;75.90;;;;;;5045207;28;20029;-54
2023/06/20 12:05:02;;;;;;;45.78;8.93;;;28.70;75.70;;;;;;5043852;28;20409;-54
2023/06/20 12:07:28;;;;;;;35.53;7.85;;;28.70;75.60;;;;;;5044443;28;20038;-54
2023/06/20 12:09:53;;;;;;;38.08;7.82;;;28.80;75.50;;;;;;5050978;28;20060;-54
2023/06/20 12:12:19;;;;;;;35.88;7.65;;;28.90;75.50;;;;;;5065092;28;20071;-54
2023/06/20 12:14:51;;;;;;;40.95;7.28;;;28.90;75.30;;;;;;5055390;28;20033;-54
2023/06/20 12:17:17;;;;;;;36.08;7.18;;;29.00;75.10;;;;;;5043120;28;20034;-54
2023/06/20 12:19:53;;;;;;;40.35;7.30;;;29.10;74.80;;;;;;5045067;28;20040;-54
2023/06/20 12:22:18;;;;;;;42.53;7.78;;;29.10;74.50;;;;;;5037940;28;20034;-54
2023/06/20 12:24:45;;;;;;;42.63;7.78;;;29.20;74.40;;;;;;5035838;28;20037;-54
2023/06/20 12:27:11;;;;;;;54.47;8.27;;;29.20;74.20;;;;;;5037968;28;20064;-54
2023/06/20 12:29:37;;;;;;;45.42;9.05;;;29.20;74.10;;;;;;5046704;28;20030;-54
2023/06/20 12:32:03;;;;;;;61.17;9.52;;;29.20;74.10;;;;;;5034333;28;20537;-54
2023/06/20 12:34:28;;;;;;;61.85;9.32;;;29.30;73.90;;;;;;5034878;28;20144;-54
2023/06/20 12:36:54;;;;;;;43.65;9.40;;;29.40;73.70;;;;;;5030878;28;20045;-55